sensor_id;sensor_type;location;lat;lon;timestamp;P1;durP1;ratioP1;P2;durP2;ratioP2
74512;SDS011;62992;52.052;8.550;2022-08-19T00:00:09;8.65;;;4.85;;
74512;SDS011;62992;52.052;8.550;2022-08-19T00:02:39;7.28;;;5.07;;
74512;SDS011;62992;52.052;8.550;2022-08-19T00:05:05;7.93;;;4.65;;
74512;SDS011;62992;52.052;8.550;2022-08-19T00:07:31;8.82;;;5.20;;
74512;SDS011;62992;52.052;8.550;2022-08-19T00:09:57;8.40;;;4.80;;
74512;SDS011;62992;52.052;8.550;2022-08-19T00:12:22;9.18;;;4.97;;
74512;SDS011;62992;52.052;8.550;2022-08-19T00:14:48;9.43;;;4.90;;
74512;SDS011;62992;52.052;8.550;2022-08-19T00:17:14;6.93;;;4.78;;
74512;SDS011;62992;52.052;8.550;2022-08-19T00:19:39;8.18;;;4.80;;
74512;SDS011;62992;52.052;8.550;2022-08-19T00:22:05;7.47;;;5.40;;
74512;SDS011;62992;52.052;8.550;2022-08-19T00:24:33;10.23;;;5.35;;
74512;SDS011;62992;52.052;8.550;2022-08-19T00:26:59;8.82;;;5.20;;
74512;SDS011;62992;52.052;8.550;2022-08-19T00:29:27;9.82;;;4.80;;
74512;SDS011;62992;52.052;8.550;2022-08-19T00:31:53;6.38;;;4.93;;
74512;SDS011;62992;52.052;8.550;2022-08-19T00:34:20;8.40;;;5.50;;
74512;SDS011;62992;52.052;8.550;2022-08-19T00:36:48;11.48;;;5.72;;
74512;SDS011;62992;52.052;8.550;2022-08-19T00:39:14;7.93;;;4.95;;
74512;SDS011;62992;52.052;8.550;2022-08-19T00:41:41;9.35;;;5.50;;
74512;SDS011;62992;52.052;8.550;2022-08-19T00:44:41;9.02;;;6.18;;
74512;SDS011;62992;52.052;8.550;2022-08-19T00:47:00;9.85;;;5.72;;
74512;SDS011;62992;52.052;8.550;2022-08-19T00:49:35;8.70;;;5.60;;
74512;SDS011;62992;52.052;8.550;2022-08-19T00:52:23;8.63;;;5.70;;
74512;SDS011;62992;52.052;8.550;2022-08-19T00:54:54;10.32;;;6.05;;
74512;SDS011;62992;52.052;8.550;2022-08-19T00:57:22;12.23;;;6.25;;
74512;SDS011;62992;52.052;8.550;2022-08-19T00:59:52;10.93;;;6.28;;
74512;SDS011;62992;52.052;8.550;2022-08-19T01:02:20;9.63;;;6.05;;
74512;SDS011;62992;52.052;8.550;2022-08-19T01:04:46;8.93;;;6.32;;
74512;SDS011;62992;52.052;8.550;2022-08-19T01:07:11;11.40;;;6.72;;
74512;SDS011;62992;52.052;8.550;2022-08-19T01:09:38;10.68;;;6.60;;
74512;SDS011;62992;52.052;8.550;2022-08-19T01:12:03;8.23;;;5.82;;
74512;SDS011;62992;52.052;8.550;2022-08-19T01:14:29;10.27;;;6.72;;
74512;SDS011;62992;52.052;8.550;2022-08-19T01:16:55;11.75;;;6.95;;
74512;SDS011;62992;52.052;8.550;2022-08-19T01:21:49;13.07;;;6.65;;
74512;SDS011;62992;52.052;8.550;2022-08-19T01:24:20;11.45;;;6.60;;
74512;SDS011;62992;52.052;8.550;2022-08-19T01:26:46;8.82;;;6.20;;
74512;SDS011;62992;52.052;8.550;2022-08-19T01:29:12;9.90;;;6.60;;
74512;SDS011;62992;52.052;8.550;2022-08-19T01:31:38;14.73;;;7.18;;
74512;SDS011;62992;52.052;8.550;2022-08-19T01:34:04;11.05;;;6.63;;
74512;SDS011;62992;52.052;8.550;2022-08-19T01:36:36;11.48;;;6.82;;
74512;SDS011;62992;52.052;8.550;2022-08-19T01:39:07;10.65;;;5.85;;
74512;SDS011;62992;52.052;8.550;2022-08-19T01:41:36;10.43;;;5.55;;
74512;SDS011;62992;52.052;8.550;2022-08-19T01:44:02;8.45;;;5.70;;
74512;SDS011;62992;52.052;8.550;2022-08-19T01:46:29;11.95;;;6.18;;
74512;SDS011;62992;52.052;8.550;2022-08-19T01:48:56;9.90;;;6.05;;
74512;SDS011;62992;52.052;8.550;2022-08-19T01:51:21;9.00;;;6.38;;
74512;SDS011;62992;52.052;8.550;2022-08-19T01:53:48;10.07;;;6.65;;
74512;SDS011;62992;52.052;8.550;2022-08-19T01:56:15;10.57;;;6.32;;
74512;SDS011;62992;52.052;8.550;2022-08-19T01:58:41;11.30;;;6.75;;
74512;SDS011;62992;52.052;8.550;2022-08-19T02:01:12;10.20;;;7.38;;
74512;SDS011;62992;52.052;8.550;2022-08-19T02:03:38;11.18;;;7.20;;
74512;SDS011;62992;52.052;8.550;2022-08-19T02:06:04;12.77;;;6.78;;
74512;SDS011;62992;52.052;8.550;2022-08-19T02:08:31;10.98;;;6.45;;
74512;SDS011;62992;52.052;8.550;2022-08-19T02:10:58;12.07;;;7.22;;
74512;SDS011;62992;52.052;8.550;2022-08-19T02:13:24;12.07;;;6.50;;
74512;SDS011;62992;52.052;8.550;2022-08-19T02:15:50;11.73;;;6.85;;
74512;SDS011;62992;52.052;8.550;2022-08-19T02:18:16;10.57;;;6.72;;
74512;SDS011;62992;52.052;8.550;2022-08-19T02:20:42;11.50;;;6.97;;
74512;SDS011;62992;52.052;8.550;2022-08-19T02:23:09;11.10;;;7.05;;
74512;SDS011;62992;52.052;8.550;2022-08-19T02:25:36;8.90;;;6.53;;
74512;SDS011;62992;52.052;8.550;2022-08-19T02:28:03;12.07;;;7.72;;
74512;SDS011;62992;52.052;8.550;2022-08-19T02:30:29;12.40;;;7.35;;
74512;SDS011;62992;52.052;8.550;2022-08-19T02:32:54;11.90;;;7.55;;
74512;SDS011;62992;52.052;8.550;2022-08-19T02:35:20;12.18;;;7.57;;
74512;SDS011;62992;52.052;8.550;2022-08-19T02:37:46;13.27;;;7.97;;
74512;SDS011;62992;52.052;8.550;2022-08-19T02:40:31;12.68;;;7.60;;
74512;SDS011;62992;52.052;8.550;2022-08-19T02:43:01;9.93;;;7.30;;
74512;SDS011;62992;52.052;8.550;2022-08-19T02:45:33;15.10;;;8.32;;
74512;SDS011;62992;52.052;8.550;2022-08-19T02:47:59;10.15;;;7.20;;
74512;SDS011;62992;52.052;8.550;2022-08-19T02:50:25;11.00;;;7.65;;
74512;SDS011;62992;52.052;8.550;2022-08-19T02:52:51;12.88;;;8.30;;
74512;SDS011;62992;52.052;8.550;2022-08-19T02:55:16;13.88;;;8.20;;
74512;SDS011;62992;52.052;8.550;2022-08-19T02:57:42;11.85;;;7.53;;
74512;SDS011;62992;52.052;8.550;2022-08-19T03:00:08;14.65;;;8.50;;
74512;SDS011;62992;52.052;8.550;2022-08-19T03:02:37;11.73;;;8.25;;
74512;SDS011;62992;52.052;8.550;2022-08-19T03:05:03;13.00;;;7.95;;
74512;SDS011;62992;52.052;8.550;2022-08-19T03:07:29;14.95;;;9.15;;
74512;SDS011;62992;52.052;8.550;2022-08-19T03:09:55;13.52;;;8.18;;
74512;SDS011;62992;52.052;8.550;2022-08-19T03:12:21;15.35;;;9.50;;
74512;SDS011;62992;52.052;8.550;2022-08-19T03:14:47;13.68;;;9.05;;
74512;SDS011;62992;52.052;8.550;2022-08-19T03:17:12;13.52;;;8.43;;
74512;SDS011;62992;52.052;8.550;2022-08-19T03:19:38;12.75;;;8.52;;
74512;SDS011;62992;52.052;8.550;2022-08-19T03:22:04;14.63;;;8.20;;
74512;SDS011;62992;52.052;8.550;2022-08-19T03:24:29;17.95;;;9.57;;
74512;SDS011;62992;52.052;8.550;2022-08-19T03:26:56;15.25;;;8.88;;
74512;SDS011;62992;52.052;8.550;2022-08-19T03:29:23;15.82;;;9.68;;
74512;SDS011;62992;52.052;8.550;2022-08-19T03:31:50;15.93;;;10.10;;
74512;SDS011;62992;52.052;8.550;2022-08-19T03:34:21;18.73;;;10.48;;
74512;SDS011;62992;52.052;8.550;2022-08-19T03:36:55;12.73;;;8.85;;
74512;SDS011;62992;52.052;8.550;2022-08-19T03:39:23;14.68;;;9.02;;
74512;SDS011;62992;52.052;8.550;2022-08-19T03:41:50;14.43;;;9.57;;
74512;SDS011;62992;52.052;8.550;2022-08-19T03:44:18;13.50;;;9.20;;
74512;SDS011;62992;52.052;8.550;2022-08-19T03:46:57;18.67;;;9.90;;
74512;SDS011;62992;52.052;8.550;2022-08-19T03:49:25;15.95;;;9.95;;
74512;SDS011;62992;52.052;8.550;2022-08-19T03:51:53;14.82;;;9.60;;
74512;SDS011;62992;52.052;8.550;2022-08-19T03:54:21;18.35;;;10.32;;
74512;SDS011;62992;52.052;8.550;2022-08-19T03:56:48;20.08;;;10.20;;
74512;SDS011;62992;52.052;8.550;2022-08-19T03:59:23;16.92;;;10.13;;
74512;SDS011;62992;52.052;8.550;2022-08-19T04:01:54;18.25;;;10.32;;
74512;SDS011;62992;52.052;8.550;2022-08-19T04:04:22;18.70;;;10.30;;
74512;SDS011;62992;52.052;8.550;2022-08-19T04:06:47;18.55;;;10.50;;
74512;SDS011;62992;52.052;8.550;2022-08-19T04:09:13;18.33;;;10.68;;
74512;SDS011;62992;52.052;8.550;2022-08-19T04:11:41;18.58;;;10.20;;
74512;SDS011;62992;52.052;8.550;2022-08-19T04:14:12;15.05;;;9.57;;
74512;SDS011;62992;52.052;8.550;2022-08-19T04:16:40;14.52;;;9.55;;
74512;SDS011;62992;52.052;8.550;2022-08-19T04:19:06;17.13;;;9.85;;
74512;SDS011;62992;52.052;8.550;2022-08-19T04:21:32;22.15;;;10.63;;
74512;SDS011;62992;52.052;8.550;2022-08-19T04:23:58;18.30;;;10.85;;
74512;SDS011;62992;52.052;8.550;2022-08-19T04:26:25;16.63;;;10.30;;
74512;SDS011;62992;52.052;8.550;2022-08-19T04:28:53;19.40;;;10.30;;
74512;SDS011;62992;52.052;8.550;2022-08-19T04:31:24;21.15;;;11.35;;
74512;SDS011;62992;52.052;8.550;2022-08-19T04:33:52;19.00;;;11.10;;
74512;SDS011;62992;52.052;8.550;2022-08-19T04:36:29;19.13;;;10.60;;
74512;SDS011;62992;52.052;8.550;2022-08-19T04:38:58;20.17;;;11.15;;
74512;SDS011;62992;52.052;8.550;2022-08-19T04:41:26;19.73;;;10.05;;
74512;SDS011;62992;52.052;8.550;2022-08-19T04:44:10;18.70;;;10.57;;
74512;SDS011;62992;52.052;8.550;2022-08-19T04:46:36;17.17;;;9.70;;
74512;SDS011;62992;52.052;8.550;2022-08-19T04:49:03;17.15;;;10.38;;
74512;SDS011;62992;52.052;8.550;2022-08-19T04:51:31;18.63;;;10.93;;
74512;SDS011;62992;52.052;8.550;2022-08-19T04:53:57;16.38;;;10.55;;
74512;SDS011;62992;52.052;8.550;2022-08-19T04:56:25;18.92;;;9.73;;
74512;SDS011;62992;52.052;8.550;2022-08-19T04:58:51;17.05;;;10.15;;
74512;SDS011;62992;52.052;8.550;2022-08-19T05:01:19;17.00;;;10.13;;
74512;SDS011;62992;52.052;8.550;2022-08-19T05:03:47;16.55;;;9.70;;
74512;SDS011;62992;52.052;8.550;2022-08-19T05:06:14;15.50;;;9.65;;
74512;SDS011;62992;52.052;8.550;2022-08-19T05:08:43;19.48;;;10.60;;
74512;SDS011;62992;52.052;8.550;2022-08-19T05:11:14;16.23;;;9.63;;
74512;SDS011;62992;52.052;8.550;2022-08-19T05:16:11;15.77;;;9.57;;
74512;SDS011;62992;52.052;8.550;2022-08-19T05:18:38;16.13;;;8.82;;
74512;SDS011;62992;52.052;8.550;2022-08-19T05:21:23;17.50;;;9.38;;
74512;SDS011;62992;52.052;8.550;2022-08-19T05:24:08;13.17;;;7.70;;
74512;SDS011;62992;52.052;8.550;2022-08-19T05:26:35;15.95;;;8.55;;
74512;SDS011;62992;52.052;8.550;2022-08-19T05:29:02;14.70;;;9.43;;
74512;SDS011;62992;52.052;8.550;2022-08-19T05:31:28;11.60;;;7.47;;
74512;SDS011;62992;52.052;8.550;2022-08-19T05:33:54;15.40;;;8.27;;
74512;SDS011;62992;52.052;8.550;2022-08-19T05:36:20;14.25;;;8.02;;
74512;SDS011;62992;52.052;8.550;2022-08-19T05:38:46;15.02;;;8.38;;
74512;SDS011;62992;52.052;8.550;2022-08-19T05:41:13;13.45;;;7.57;;
74512;SDS011;62992;52.052;8.550;2022-08-19T05:43:40;13.57;;;7.88;;
74512;SDS011;62992;52.052;8.550;2022-08-19T05:46:06;11.90;;;7.57;;
74512;SDS011;62992;52.052;8.550;2022-08-19T05:48:33;11.02;;;7.38;;
74512;SDS011;62992;52.052;8.550;2022-08-19T05:51:06;15.77;;;7.95;;
74512;SDS011;62992;52.052;8.550;2022-08-19T05:53:33;13.23;;;7.65;;
74512;SDS011;62992;52.052;8.550;2022-08-19T05:56:06;12.43;;;7.88;;
74512;SDS011;62992;52.052;8.550;2022-08-19T05:58:32;10.20;;;6.72;;
74512;SDS011;62992;52.052;8.550;2022-08-19T06:00:58;10.98;;;7.13;;
74512;SDS011;62992;52.052;8.550;2022-08-19T06:03:29;12.65;;;6.85;;
74512;SDS011;62992;52.052;8.550;2022-08-19T06:05:55;10.15;;;6.97;;
74512;SDS011;62992;52.052;8.550;2022-08-19T06:08:23;9.77;;;6.88;;
74512;SDS011;62992;52.052;8.550;2022-08-19T06:10:49;10.00;;;7.03;;
74512;SDS011;62992;52.052;8.550;2022-08-19T06:13:14;9.82;;;6.20;;
74512;SDS011;62992;52.052;8.550;2022-08-19T06:15:40;8.05;;;5.82;;
74512;SDS011;62992;52.052;8.550;2022-08-19T06:18:08;8.77;;;6.32;;
74512;SDS011;62992;52.052;8.550;2022-08-19T06:20:34;9.95;;;5.93;;
74512;SDS011;62992;52.052;8.550;2022-08-19T06:23:00;9.88;;;6.38;;
74512;SDS011;62992;52.052;8.550;2022-08-19T06:25:25;7.38;;;5.32;;
74512;SDS011;62992;52.052;8.550;2022-08-19T06:27:51;8.23;;;5.40;;
74512;SDS011;62992;52.052;8.550;2022-08-19T06:30:17;6.90;;;5.38;;
74512;SDS011;62992;52.052;8.550;2022-08-19T06:32:43;5.80;;;5.10;;
74512;SDS011;62992;52.052;8.550;2022-08-19T06:35:09;7.13;;;4.97;;
74512;SDS011;62992;52.052;8.550;2022-08-19T06:37:35;7.30;;;4.50;;
74512;SDS011;62992;52.052;8.550;2022-08-19T06:40:01;6.93;;;4.40;;
74512;SDS011;62992;52.052;8.550;2022-08-19T06:42:27;6.97;;;4.63;;
74512;SDS011;62992;52.052;8.550;2022-08-19T06:44:53;7.15;;;4.25;;
74512;SDS011;62992;52.052;8.550;2022-08-19T06:47:20;6.22;;;4.55;;
74512;SDS011;62992;52.052;8.550;2022-08-19T06:49:46;6.80;;;5.25;;
74512;SDS011;62992;52.052;8.550;2022-08-19T06:52:12;7.80;;;4.78;;
74512;SDS011;62992;52.052;8.550;2022-08-19T06:54:38;6.50;;;4.38;;
74512;SDS011;62992;52.052;8.550;2022-08-19T06:57:04;7.00;;;4.85;;
74512;SDS011;62992;52.052;8.550;2022-08-19T06:59:31;7.00;;;4.55;;
74512;SDS011;62992;52.052;8.550;2022-08-19T07:01:59;7.95;;;4.80;;
74512;SDS011;62992;52.052;8.550;2022-08-19T07:04:28;7.45;;;4.72;;
74512;SDS011;62992;52.052;8.550;2022-08-19T07:06:59;7.45;;;4.22;;
74512;SDS011;62992;52.052;8.550;2022-08-19T07:09:31;8.43;;;4.88;;
74512;SDS011;62992;52.052;8.550;2022-08-19T07:11:56;6.93;;;4.70;;
74512;SDS011;62992;52.052;8.550;2022-08-19T07:14:24;7.22;;;4.90;;
74512;SDS011;62992;52.052;8.550;2022-08-19T07:16:52;8.55;;;5.07;;
74512;SDS011;62992;52.052;8.550;2022-08-19T07:19:20;8.20;;;5.22;;
74512;SDS011;62992;52.052;8.550;2022-08-19T07:21:48;8.90;;;5.50;;
74512;SDS011;62992;52.052;8.550;2022-08-19T07:24:17;9.68;;;4.70;;
74512;SDS011;62992;52.052;8.550;2022-08-19T07:26:44;7.30;;;4.43;;
74512;SDS011;62992;52.052;8.550;2022-08-19T07:29:11;8.85;;;4.60;;
74512;SDS011;62992;52.052;8.550;2022-08-19T07:31:38;5.63;;;3.70;;
74512;SDS011;62992;52.052;8.550;2022-08-19T07:34:08;8.73;;;4.13;;
74512;SDS011;62992;52.052;8.550;2022-08-19T07:36:36;6.70;;;3.60;;
74512;SDS011;62992;52.052;8.550;2022-08-19T07:39:10;4.68;;;3.63;;
74512;SDS011;62992;52.052;8.550;2022-08-19T07:41:38;5.30;;;3.78;;
74512;SDS011;62992;52.052;8.550;2022-08-19T07:44:04;5.13;;;3.30;;
74512;SDS011;62992;52.052;8.550;2022-08-19T07:46:33;5.32;;;4.22;;
74512;SDS011;62992;52.052;8.550;2022-08-19T07:49:01;5.57;;;3.85;;
74512;SDS011;62992;52.052;8.550;2022-08-19T07:51:28;5.10;;;4.15;;
74512;SDS011;62992;52.052;8.550;2022-08-19T07:53:53;5.13;;;3.80;;
74512;SDS011;62992;52.052;8.550;2022-08-19T07:56:20;6.00;;;4.10;;
74512;SDS011;62992;52.052;8.550;2022-08-19T07:58:48;7.68;;;3.92;;
74512;SDS011;62992;52.052;8.550;2022-08-19T08:01:16;5.03;;;3.65;;
74512;SDS011;62992;52.052;8.550;2022-08-19T08:03:45;4.80;;;3.10;;
74512;SDS011;62992;52.052;8.550;2022-08-19T08:06:31;4.28;;;3.25;;
74512;SDS011;62992;52.052;8.550;2022-08-19T08:09:17;5.63;;;3.20;;
74512;SDS011;62992;52.052;8.550;2022-08-19T08:11:51;6.60;;;3.72;;
74512;SDS011;62992;52.052;8.550;2022-08-19T08:14:23;4.45;;;3.10;;
74512;SDS011;62992;52.052;8.550;2022-08-19T08:16:52;5.07;;;3.85;;
74512;SDS011;62992;52.052;8.550;2022-08-19T08:19:19;3.95;;;3.00;;
74512;SDS011;62992;52.052;8.550;2022-08-19T08:21:46;3.72;;;2.97;;
74512;SDS011;62992;52.052;8.550;2022-08-19T08:24:13;4.20;;;2.95;;
74512;SDS011;62992;52.052;8.550;2022-08-19T08:26:39;4.32;;;2.80;;
74512;SDS011;62992;52.052;8.550;2022-08-19T08:29:05;3.10;;;2.78;;
74512;SDS011;62992;52.052;8.550;2022-08-19T08:31:35;4.60;;;2.70;;
74512;SDS011;62992;52.052;8.550;2022-08-19T08:34:00;4.32;;;2.58;;
74512;SDS011;62992;52.052;8.550;2022-08-19T08:36:26;3.88;;;2.45;;
74512;SDS011;62992;52.052;8.550;2022-08-19T08:38:52;4.20;;;2.40;;
74512;SDS011;62992;52.052;8.550;2022-08-19T08:43:53;3.97;;;2.72;;
74512;SDS011;62992;52.052;8.550;2022-08-19T08:46:27;5.07;;;2.42;;
74512;SDS011;62992;52.052;8.550;2022-08-19T08:51:46;3.97;;;2.97;;
74512;SDS011;62992;52.052;8.550;2022-08-19T08:54:18;4.15;;;2.60;;
74512;SDS011;62992;52.052;8.550;2022-08-19T08:56:45;3.72;;;2.33;;
74512;SDS011;62992;52.052;8.550;2022-08-19T08:59:28;4.18;;;2.00;;
74512;SDS011;62992;52.052;8.550;2022-08-19T09:01:58;3.70;;;2.50;;
74512;SDS011;62992;52.052;8.550;2022-08-19T09:04:24;5.10;;;2.33;;
74512;SDS011;62992;52.052;8.550;2022-08-19T09:06:57;5.03;;;2.20;;
74512;SDS011;62992;52.052;8.550;2022-08-19T09:09:43;3.70;;;2.40;;
74512;SDS011;62992;52.052;8.550;2022-08-19T09:12:16;2.92;;;2.08;;
74512;SDS011;62992;52.052;8.550;2022-08-19T09:15:02;3.42;;;2.00;;
74512;SDS011;62992;52.052;8.550;2022-08-19T09:17:33;3.38;;;2.20;;
74512;SDS011;62992;52.052;8.550;2022-08-19T09:20:05;4.35;;;2.38;;
74512;SDS011;62992;52.052;8.550;2022-08-19T09:22:34;2.53;;;2.13;;
74512;SDS011;62992;52.052;8.550;2022-08-19T09:25:01;3.20;;;2.30;;
74512;SDS011;62992;52.052;8.550;2022-08-19T09:27:27;4.05;;;2.20;;
74512;SDS011;62992;52.052;8.550;2022-08-19T09:29:54;2.90;;;2.47;;
74512;SDS011;62992;52.052;8.550;2022-08-19T09:32:21;3.45;;;2.25;;
74512;SDS011;62992;52.052;8.550;2022-08-19T09:34:47;3.47;;;2.13;;
74512;SDS011;62992;52.052;8.550;2022-08-19T09:37:13;2.55;;;2.30;;
74512;SDS011;62992;52.052;8.550;2022-08-19T09:39:39;3.00;;;2.40;;
74512;SDS011;62992;52.052;8.550;2022-08-19T09:42:06;3.42;;;2.28;;
74512;SDS011;62992;52.052;8.550;2022-08-19T09:44:37;3.25;;;2.60;;
74512;SDS011;62992;52.052;8.550;2022-08-19T09:47:04;2.85;;;2.60;;
74512;SDS011;62992;52.052;8.550;2022-08-19T09:49:29;3.47;;;2.00;;
74512;SDS011;62992;52.052;8.550;2022-08-19T09:51:56;4.20;;;2.35;;
74512;SDS011;62992;52.052;8.550;2022-08-19T09:54:22;3.65;;;2.60;;
74512;SDS011;62992;52.052;8.550;2022-08-19T09:56:48;3.05;;;2.20;;
74512;SDS011;62992;52.052;8.550;2022-08-19T09:59:14;4.20;;;2.25;;
74512;SDS011;62992;52.052;8.550;2022-08-19T10:01:40;3.72;;;2.08;;
74512;SDS011;62992;52.052;8.550;2022-08-19T10:04:06;4.18;;;2.60;;
74512;SDS011;62992;52.052;8.550;2022-08-19T10:06:36;4.55;;;2.53;;
74512;SDS011;62992;52.052;8.550;2022-08-19T10:09:05;3.67;;;2.47;;
74512;SDS011;62992;52.052;8.550;2022-08-19T10:11:32;4.60;;;2.40;;
74512;SDS011;62992;52.052;8.550;2022-08-19T10:14:03;4.22;;;2.35;;
74512;SDS011;62992;52.052;8.550;2022-08-19T10:16:30;4.13;;;1.92;;
74512;SDS011;62992;52.052;8.550;2022-08-19T10:18:57;4.05;;;2.10;;
74512;SDS011;62992;52.052;8.550;2022-08-19T10:21:27;3.17;;;2.20;;
74512;SDS011;62992;52.052;8.550;2022-08-19T10:23:58;2.28;;;2.00;;
74512;SDS011;62992;52.052;8.550;2022-08-19T10:26:28;3.35;;;2.10;;
74512;SDS011;62992;52.052;8.550;2022-08-19T10:28:56;2.58;;;1.60;;
74512;SDS011;62992;52.052;8.550;2022-08-19T10:31:29;1.67;;;1.30;;
74512;SDS011;62992;52.052;8.550;2022-08-19T10:33:57;1.60;;;1.23;;
74512;SDS011;62992;52.052;8.550;2022-08-19T10:36:24;1.80;;;1.33;;
74512;SDS011;62992;52.052;8.550;2022-08-19T10:38:55;1.45;;;1.10;;
74512;SDS011;62992;52.052;8.550;2022-08-19T10:41:24;4.43;;;1.42;;
74512;SDS011;62992;52.052;8.550;2022-08-19T10:43:53;1.77;;;1.40;;
74512;SDS011;62992;52.052;8.550;2022-08-19T10:46:22;4.47;;;1.70;;
74512;SDS011;62992;52.052;8.550;2022-08-19T10:48:49;2.90;;;1.55;;
74512;SDS011;62992;52.052;8.550;2022-08-19T10:51:15;2.83;;;2.17;;
74512;SDS011;62992;52.052;8.550;2022-08-19T10:54:00;3.13;;;1.85;;
74512;SDS011;62992;52.052;8.550;2022-08-19T10:56:26;3.22;;;1.90;;
74512;SDS011;62992;52.052;8.550;2022-08-19T10:59:12;2.72;;;1.90;;
74512;SDS011;62992;52.052;8.550;2022-08-19T11:01:39;3.08;;;1.73;;
74512;SDS011;62992;52.052;8.550;2022-08-19T11:04:06;2.25;;;1.70;;
74512;SDS011;62992;52.052;8.550;2022-08-19T11:06:34;5.13;;;2.30;;
74512;SDS011;62992;52.052;8.550;2022-08-19T11:09:01;4.57;;;1.90;;
74512;SDS011;62992;52.052;8.550;2022-08-19T11:11:28;2.30;;;1.83;;
74512;SDS011;62992;52.052;8.550;2022-08-19T11:13:54;2.53;;;1.80;;
74512;SDS011;62992;52.052;8.550;2022-08-19T11:16:21;2.95;;;1.73;;
74512;SDS011;62992;52.052;8.550;2022-08-19T11:18:52;2.78;;;1.88;;
74512;SDS011;62992;52.052;8.550;2022-08-19T11:23:48;3.28;;;2.28;;
74512;SDS011;62992;52.052;8.550;2022-08-19T11:26:16;4.70;;;2.00;;
74512;SDS011;62992;52.052;8.550;2022-08-19T11:28:42;2.10;;;1.90;;
74512;SDS011;62992;52.052;8.550;2022-08-19T11:31:12;3.50;;;1.65;;
74512;SDS011;62992;52.052;8.550;2022-08-19T11:33:40;2.63;;;1.80;;
74512;SDS011;62992;52.052;8.550;2022-08-19T11:36:06;2.92;;;1.80;;
74512;SDS011;62992;52.052;8.550;2022-08-19T11:38:32;2.45;;;1.92;;
74512;SDS011;62992;52.052;8.550;2022-08-19T11:41:00;3.80;;;2.13;;
74512;SDS011;62992;52.052;8.550;2022-08-19T11:43:27;2.65;;;1.77;;
74512;SDS011;62992;52.052;8.550;2022-08-19T11:45:54;2.67;;;1.83;;
74512;SDS011;62992;52.052;8.550;2022-08-19T11:48:20;2.88;;;1.77;;
74512;SDS011;62992;52.052;8.550;2022-08-19T11:50:47;4.00;;;2.13;;
74512;SDS011;62992;52.052;8.550;2022-08-19T11:53:13;3.38;;;2.10;;
74512;SDS011;62992;52.052;8.550;2022-08-19T11:55:39;1.80;;;1.70;;
74512;SDS011;62992;52.052;8.550;2022-08-19T11:58:05;2.83;;;1.95;;
74512;SDS011;62992;52.052;8.550;2022-08-19T12:00:33;2.60;;;2.10;;
74512;SDS011;62992;52.052;8.550;2022-08-19T12:03:00;2.88;;;1.98;;
74512;SDS011;62992;52.052;8.550;2022-08-19T12:05:26;3.67;;;1.95;;
74512;SDS011;62992;52.052;8.550;2022-08-19T12:07:52;2.95;;;2.25;;
74512;SDS011;62992;52.052;8.550;2022-08-19T12:10:20;3.00;;;2.05;;
74512;SDS011;62992;52.052;8.550;2022-08-19T12:15:15;3.60;;;2.10;;
74512;SDS011;62992;52.052;8.550;2022-08-19T12:17:41;4.38;;;2.60;;
74512;SDS011;62992;52.052;8.550;2022-08-19T12:20:08;2.85;;;2.20;;
74512;SDS011;62992;52.052;8.550;2022-08-19T12:22:36;4.55;;;2.50;;
74512;SDS011;62992;52.052;8.550;2022-08-19T12:25:03;4.03;;;2.60;;
74512;SDS011;62992;52.052;8.550;2022-08-19T12:27:30;7.05;;;3.95;;
74512;SDS011;62992;52.052;8.550;2022-08-19T12:29:56;4.47;;;2.83;;
74512;SDS011;62992;52.052;8.550;2022-08-19T12:32:22;3.45;;;2.47;;
74512;SDS011;62992;52.052;8.550;2022-08-19T12:34:49;5.85;;;3.45;;
74512;SDS011;62992;52.052;8.550;2022-08-19T12:37:15;4.10;;;2.70;;
74512;SDS011;62992;52.052;8.550;2022-08-19T12:39:42;4.75;;;2.83;;
74512;SDS011;62992;52.052;8.550;2022-08-19T12:42:09;3.60;;;2.42;;
74512;SDS011;62992;52.052;8.550;2022-08-19T12:44:36;4.80;;;2.47;;
74512;SDS011;62992;52.052;8.550;2022-08-19T12:47:04;4.93;;;2.53;;
74512;SDS011;62992;52.052;8.550;2022-08-19T12:49:32;6.40;;;3.10;;
74512;SDS011;62992;52.052;8.550;2022-08-19T12:52:01;3.70;;;2.58;;
74512;SDS011;62992;52.052;8.550;2022-08-19T12:54:30;4.32;;;2.38;;
74512;SDS011;62992;52.052;8.550;2022-08-19T12:56:56;2.88;;;2.38;;
74512;SDS011;62992;52.052;8.550;2022-08-19T12:59:23;3.28;;;2.45;;
74512;SDS011;62992;52.052;8.550;2022-08-19T13:01:48;4.32;;;2.58;;
74512;SDS011;62992;52.052;8.550;2022-08-19T13:04:14;2.55;;;2.35;;
74512;SDS011;62992;52.052;8.550;2022-08-19T13:06:41;4.05;;;2.50;;
74512;SDS011;62992;52.052;8.550;2022-08-19T13:09:07;4.63;;;2.53;;
74512;SDS011;62992;52.052;8.550;2022-08-19T13:11:33;4.88;;;2.60;;
74512;SDS011;62992;52.052;8.550;2022-08-19T13:14:00;2.90;;;2.13;;
74512;SDS011;62992;52.052;8.550;2022-08-19T13:16:26;3.30;;;2.50;;
74512;SDS011;62992;52.052;8.550;2022-08-19T13:18:53;3.97;;;2.40;;
74512;SDS011;62992;52.052;8.550;2022-08-19T13:21:21;3.10;;;2.35;;
74512;SDS011;62992;52.052;8.550;2022-08-19T13:23:48;3.42;;;2.50;;
74512;SDS011;62992;52.052;8.550;2022-08-19T13:26:15;2.72;;;2.40;;
74512;SDS011;62992;52.052;8.550;2022-08-19T13:28:41;2.65;;;2.30;;
74512;SDS011;62992;52.052;8.550;2022-08-19T13:31:28;2.92;;;2.33;;
74512;SDS011;62992;52.052;8.550;2022-08-19T13:34:29;4.68;;;2.60;;
74512;SDS011;62992;52.052;8.550;2022-08-19T13:36:58;2.72;;;2.53;;
74512;SDS011;62992;52.052;8.550;2022-08-19T13:39:27;2.90;;;2.20;;
74512;SDS011;62992;52.052;8.550;2022-08-19T13:41:54;2.72;;;2.53;;
74512;SDS011;62992;52.052;8.550;2022-08-19T13:44:20;3.00;;;2.40;;
74512;SDS011;62992;52.052;8.550;2022-08-19T13:46:47;4.03;;;2.63;;
74512;SDS011;62992;52.052;8.550;2022-08-19T13:49:14;4.00;;;2.22;;
74512;SDS011;62992;52.052;8.550;2022-08-19T13:51:40;3.33;;;2.08;;
74512;SDS011;62992;52.052;8.550;2022-08-19T13:54:08;3.30;;;2.20;;
74512;SDS011;62992;52.052;8.550;2022-08-19T13:56:35;2.45;;;2.22;;
74512;SDS011;62992;52.052;8.550;2022-08-19T13:59:05;2.50;;;2.30;;
74512;SDS011;62992;52.052;8.550;2022-08-19T14:01:30;2.60;;;2.10;;
74512;SDS011;62992;52.052;8.550;2022-08-19T14:03:56;2.60;;;2.40;;
74512;SDS011;62992;52.052;8.550;2022-08-19T14:06:22;3.35;;;2.40;;
74512;SDS011;62992;52.052;8.550;2022-08-19T14:08:48;3.60;;;2.50;;
74512;SDS011;62992;52.052;8.550;2022-08-19T14:11:14;2.58;;;2.28;;
74512;SDS011;62992;52.052;8.550;2022-08-19T14:13:40;4.05;;;2.60;;
74512;SDS011;62992;52.052;8.550;2022-08-19T14:16:06;2.65;;;2.20;;
74512;SDS011;62992;52.052;8.550;2022-08-19T14:18:34;4.22;;;2.30;;
74512;SDS011;62992;52.052;8.550;2022-08-19T14:20:59;2.75;;;2.28;;
74512;SDS011;62992;52.052;8.550;2022-08-19T14:23:25;2.42;;;2.22;;
74512;SDS011;62992;52.052;8.550;2022-08-19T14:25:51;3.42;;;2.30;;
74512;SDS011;62992;52.052;8.550;2022-08-19T14:28:16;3.15;;;2.28;;
74512;SDS011;62992;52.052;8.550;2022-08-19T14:30:42;2.45;;;2.25;;
74512;SDS011;62992;52.052;8.550;2022-08-19T14:33:09;2.55;;;2.10;;
74512;SDS011;62992;52.052;8.550;2022-08-19T14:35:35;2.60;;;2.35;;
74512;SDS011;62992;52.052;8.550;2022-08-19T14:38:03;2.80;;;2.00;;
74512;SDS011;62992;52.052;8.550;2022-08-19T14:40:30;2.70;;;2.50;;
74512;SDS011;62992;52.052;8.550;2022-08-19T14:42:58;2.95;;;2.40;;
74512;SDS011;62992;52.052;8.550;2022-08-19T14:45:30;2.33;;;2.13;;
74512;SDS011;62992;52.052;8.550;2022-08-19T14:47:58;3.40;;;2.40;;
74512;SDS011;62992;52.052;8.550;2022-08-19T14:50:25;4.05;;;2.67;;
74512;SDS011;62992;52.052;8.550;2022-08-19T14:52:56;3.30;;;2.35;;
74512;SDS011;62992;52.052;8.550;2022-08-19T14:55:23;3.25;;;2.47;;
74512;SDS011;62992;52.052;8.550;2022-08-19T14:57:49;3.50;;;2.42;;
74512;SDS011;62992;52.052;8.550;2022-08-19T15:00:15;2.92;;;2.60;;
74512;SDS011;62992;52.052;8.550;2022-08-19T15:02:41;2.97;;;2.60;;